Time;durP1;ratioP1;P1;durP2;ratioP2;P2;SDS_P1;SDS_P2;PMS_P1;PMS_P2;Temp;Humidity;BMP_temperature;BMP_pressure;BME280_temperature;BME280_humidity;BME280_pressure;Samples;Min_cycle;Max_cycle;Signal;HPM_P1;HPM_P2
2021/09/14 00:01:58;;;;;;;9.32;6.35;;;16.00;87.20;;;;;;5036607;28;20580;-85
2021/09/14 00:04:23;;;;;;;10.45;6.47;;;15.90;87.20;;;;;;5020092;28;20111;-85
2021/09/14 00:06:49;;;;;;;10.95;6.38;;;15.90;87.30;;;;;;5053564;28;20029;-85
2021/09/14 00:09:15;;;;;;;11.57;7.35;;;15.80;87.30;;;;;;5053150;28;20029;-85
2021/09/14 00:11:40;;;;;;;10.93;6.55;;;15.80;87.40;;;;;;5052935;28;20377;-85
2021/09/14 00:14:07;;;;;;;10.68;6.65;;;15.80;87.60;;;;;;5036265;28;20533;-85
2021/09/14 00:16:32;;;;;;;10.85;7.50;;;15.80;87.70;;;;;;5036447;28;20029;-85
2021/09/14 00:18:58;;;;;;;10.50;6.82;;;15.80;87.80;;;;;;5052923;28;20029;-85
2021/09/14 00:21:24;;;;;;;9.95;7.57;;;15.70;87.70;;;;;;5054145;28;20033;-86
2021/09/14 00:23:50;;;;;;;14.77;7.00;;;15.70;87.80;;;;;;5052863;28;20040;-86
2021/09/14 00:26:16;;;;;;;13.02;7.18;;;15.70;88.00;;;;;;5044761;28;20382;-85
2021/09/14 00:28:41;;;;;;;11.77;7.63;;;15.60;88.00;;;;;;5035972;28;20044;-86
2021/09/14 00:31:07;;;;;;;13.68;8.90;;;15.60;88.10;;;;;;5052717;28;20029;-83
2021/09/14 00:33:32;;;;;;;11.70;8.20;;;15.50;88.20;;;;;;5053445;28;20035;-84
2021/09/14 00:35:58;;;;;;;10.00;7.55;;;15.50;88.50;;;;;;5052467;28;20025;-85
2021/09/14 00:38:24;;;;;;;12.88;7.82;;;15.50;89.20;;;;;;5052435;28;20057;-85
2021/09/14 00:40:49;;;;;;;12.52;9.18;;;15.40;88.60;;;;;;5053360;28;20470;-85
2021/09/14 00:43:22;;;;;;;13.05;7.65;;;15.50;88.60;;;;;;5035407;28;20422;-84
2021/09/14 00:45:48;;;;;;;10.85;7.53;;;15.40;89.30;;;;;;5052285;28;20062;-85
2021/09/14 00:48:14;;;;;;;11.65;7.65;;;15.40;88.60;;;;;;5035773;28;20026;-85
2021/09/14 00:50:41;;;;;;;10.43;7.18;;;15.40;88.50;;;;;;5053653;28;20033;-85
2021/09/14 00:53:07;;;;;;;10.55;7.35;;;15.40;88.50;;;;;;5052168;28;20013;-85
2021/09/14 00:55:33;;;;;;;13.20;7.72;;;15.40;88.50;;;;;;5052376;28;20036;-85
2021/09/14 00:57:58;;;;;;;10.35;8.40;;;15.40;88.50;;;;;;5052134;28;20025;-85
2021/09/14 01:00:24;;;;;;;14.50;8.57;;;15.40;88.50;;;;;;5053454;28;20025;-85
2021/09/14 01:02:50;;;;;;;13.20;8.48;;;15.40;88.50;;;;;;5053098;28;20045;-85
2021/09/14 01:05:16;;;;;;;14.23;8.20;;;15.30;88.60;;;;;;5019169;28;20043;-85
2021/09/14 01:07:42;;;;;;;13.48;8.75;;;15.30;89.40;;;;;;5035478;28;20124;-85
2021/09/14 01:10:10;;;;;;;12.52;9.07;;;15.30;88.90;;;;;;5053308;28;20060;-85
2021/09/14 01:12:37;;;;;;;11.00;8.45;;;15.20;89.00;;;;;;5035440;28;20496;-85
2021/09/14 01:15:03;;;;;;;12.40;9.43;;;15.30;89.20;;;;;;5053448;28;20033;-86
2021/09/14 01:17:28;;;;;;;13.38;8.68;;;15.20;89.20;;;;;;5035593;28;20500;-85
2021/09/14 01:19:54;;;;;;;14.80;8.68;;;15.20;89.10;;;;;;5053586;28;20104;-86
2021/09/14 01:22:20;;;;;;;12.02;8.93;;;15.20;89.10;;;;;;5052173;28;20029;-84
2021/09/14 01:24:46;;;;;;;10.88;8.43;;;15.20;89.00;;;;;;5035540;28;20029;-85
2021/09/14 01:27:11;;;;;;;14.05;9.18;;;15.20;89.10;;;;;;5035230;28;20053;-85
2021/09/14 01:32:21;;;;;;;10.75;9.10;;;15.20;89.20;;;;;;5053015;28;20032;-86
2021/09/14 01:34:47;;;;;;;13.63;9.07;;;15.20;89.20;;;;;;5052185;28;20033;-86
2021/09/14 01:37:13;;;;;;;13.75;9.07;;;15.20;89.20;;;;;;5052976;28;20506;-85
2021/09/14 01:39:38;;;;;;;12.15;8.73;;;15.20;89.10;;;;;;5051930;28;20028;-85
2021/09/14 01:42:04;;;;;;;12.82;8.82;;;15.20;89.00;;;;;;5053026;28;20644;-85
2021/09/14 01:44:29;;;;;;;14.85;9.07;;;15.20;89.00;;;;;;5018975;28;20029;-85
2021/09/14 01:46:55;;;;;;;14.43;9.43;;;15.20;89.00;;;;;;5052010;28;20025;-86
2021/09/14 01:49:21;;;;;;;12.95;8.77;;;15.20;89.00;;;;;;5052048;28;20470;-86
2021/09/14 01:51:46;;;;;;;13.88;8.82;;;15.10;89.10;;;;;;5034905;28;20045;-85
2021/09/14 01:54:12;;;;;;;12.90;9.45;;;15.10;89.30;;;;;;5052949;28;20111;-86
2021/09/14 01:56:38;;;;;;;15.40;8.73;;;15.10;89.30;;;;;;5035067;28;20026;-85
2021/09/14 01:59:04;;;;;;;15.48;9.88;;;15.10;89.50;;;;;;5051782;28;20112;-85
2021/09/14 02:01:40;;;;;;;12.10;8.98;;;15.10;89.60;;;;;;5052633;28;20021;-84
2021/09/14 02:04:16;;;;;;;10.57;8.90;;;15.10;89.70;;;;;;5052373;28;20032;-85
2021/09/14 03:00:39;;;;;;;16.73;11.45;;;14.60;90.50;;;;;;5040894;28;20048;-85
2021/09/14 03:03:05;;;;;;;18.65;10.82;;;14.60;90.50;;;;;;5021444;28;20049;-85
2021/09/14 03:05:31;;;;;;;17.30;11.90;;;14.60;90.60;;;;;;5043558;28;20032;-85
2021/09/14 03:07:57;;;;;;;14.90;10.75;;;14.60;90.60;;;;;;5038326;28;20080;-85
2021/09/14 03:10:23;;;;;;;16.30;12.65;;;14.60;90.60;;;;;;5034480;28;20033;-85
2021/09/14 03:12:49;;;;;;;18.73;12.35;;;14.60;90.60;;;;;;5034382;28;20029;-86
2021/09/14 03:15:14;;;;;;;17.52;12.35;;;14.50;90.70;;;;;;5034551;28;20116;-85
2021/09/14 03:17:40;;;;;;;16.48;11.77;;;14.50;90.70;;;;;;5046106;28;20571;-86
2021/09/14 03:20:06;;;;;;;14.25;11.70;;;14.50;90.80;;;;;;5028313;28;20128;-85
2021/09/14 03:22:31;;;;;;;13.32;10.40;;;14.50;90.80;;;;;;5073968;28;20039;-86
2021/09/14 03:24:57;;;;;;;17.33;12.63;;;14.50;90.80;;;;;;5074491;28;20119;-86
2021/09/14 03:27:23;;;;;;;13.98;10.15;;;14.50;90.70;;;;;;5075259;28;20040;-86
2021/09/14 03:29:48;;;;;;;17.73;13.05;;;14.60;90.70;;;;;;5074106;28;20117;-85
2021/09/14 03:32:14;;;;;;;20.75;14.05;;;14.50;90.60;;;;;;5054938;28;20025;-86
2021/09/14 03:34:40;;;;;;;15.63;12.13;;;14.50;90.70;;;;;;5020911;28;20442;-86
2021/09/14 03:37:05;;;;;;;17.23;12.55;;;14.50;91.00;;;;;;5037194;28;20029;-85
2021/09/14 03:39:31;;;;;;;18.00;13.65;;;14.50;90.70;;;;;;5053786;28;20063;-85
2021/09/14 03:41:57;;;;;;;18.77;13.52;;;14.40;90.70;;;;;;5037055;28;20033;-85
2021/09/14 03:44:22;;;;;;;21.23;14.75;;;14.40;90.80;;;;;;5037451;28;20033;-86
2021/09/14 03:46:48;;;;;;;19.45;13.15;;;14.40;90.90;;;;;;5036996;28;20044;-86
2021/09/14 03:49:13;;;;;;;17.45;13.68;;;14.30;91.00;;;;;;5054994;28;20398;-85
2021/09/14 03:51:39;;;;;;;18.67;12.82;;;14.30;91.00;;;;;;5036781;28;20118;-86
2021/09/14 03:54:05;;;;;;;19.38;14.90;;;14.30;91.10;;;;;;5053589;28;20068;-84
2021/09/14 03:56:30;;;;;;;18.40;14.23;;;14.20;91.10;;;;;;5054770;28;20029;-86
2021/09/14 03:58:56;;;;;;;19.33;14.73;;;14.30;91.10;;;;;;5020408;28;20498;-86
2021/09/14 04:01:21;;;;;;;18.38;14.18;;;14.30;91.20;;;;;;5053195;28;20025;-85
2021/09/14 04:04:01;;;;;;;22.02;13.82;;;14.20;91.20;;;;;;5032993;28;20049;-85
2021/09/14 04:06:41;;;;;;;22.58;14.27;;;14.20;91.20;;;;;;5031910;28;20409;-85
2021/09/14 04:09:07;;;;;;;18.65;13.98;;;14.20;91.20;;;;;;5035136;28;20036;-86
2021/09/14 04:11:33;;;;;;;18.90;12.55;;;14.30;91.20;;;;;;5053912;28;20029;-86
2021/09/14 04:13:58;;;;;;;18.10;14.48;;;14.30;91.20;;;;;;5053191;28;20032;-86
2021/09/14 04:16:24;;;;;;;17.83;13.10;;;14.30;91.20;;;;;;5036720;28;20057;-86
2021/09/14 04:18:50;;;;;;;18.67;13.85;;;14.20;91.20;;;;;;5020123;28;20032;-86
2021/09/14 04:21:16;;;;;;;25.02;14.93;;;14.20;91.20;;;;;;5019847;28;20025;-86
2021/09/14 04:23:41;;;;;;;24.75;14.40;;;14.20;91.30;;;;;;5054211;28;20028;-86
2021/09/14 04:26:08;;;;;;;22.00;13.88;;;14.20;91.30;;;;;;5054076;28;20039;-86
2021/09/14 04:28:34;;;;;;;19.92;13.45;;;14.20;91.30;;;;;;5054300;28;20428;-86
2021/09/14 04:31:00;;;;;;;18.80;12.45;;;14.20;91.30;;;;;;5036357;28;20033;-86
2021/09/14 04:33:26;;;;;;;17.88;13.13;;;14.10;91.20;;;;;;5053183;28;20029;-86
2021/09/14 04:35:52;;;;;;;16.42;12.18;;;14.20;91.20;;;;;;5035799;28;20055;-86
2021/09/14 04:38:17;;;;;;;18.77;13.38;;;14.20;91.20;;;;;;5036342;28;20071;-86
2021/09/14 04:40:43;;;;;;;19.73;14.77;;;14.20;91.20;;;;;;5053818;28;20032;-86
2021/09/14 04:43:09;;;;;;;19.23;13.73;;;14.20;91.20;;;;;;5053950;28;20029;-86
2021/09/14 04:45:34;;;;;;;22.45;15.30;;;14.10;91.10;;;;;;5032594;28;20470;-86
2021/09/14 04:48:00;;;;;;;24.25;15.60;;;14.10;91.10;;;;;;5032845;28;20053;-86
2021/09/14 04:50:26;;;;;;;18.92;14.40;;;14.10;91.10;;;;;;5032524;28;20044;-86
2021/09/14 04:52:51;;;;;;;18.30;14.40;;;14.10;91.00;;;;;;5034059;28;20025;-86
2021/09/14 04:55:17;;;;;;;19.17;13.98;;;14.10;91.10;;;;;;5016021;28;20033;-86
2021/09/14 04:57:43;;;;;;;19.23;14.85;;;14.10;91.00;;;;;;5032580;28;20080;-84
2021/09/14 05:00:11;;;;;;;18.15;14.43;;;14.10;91.00;;;;;;5015805;28;20091;-86
2021/09/14 05:02:37;;;;;;;18.20;14.32;;;14.10;91.00;;;;;;5033454;28;20053;-85
2021/09/14 05:05:03;;;;;;;21.17;13.98;;;14.10;91.00;;;;;;5015818;28;20151;-86
2021/09/14 05:07:28;;;;;;;24.92;15.68;;;14.10;91.00;;;;;;5016004;28;20029;-86
2021/09/14 05:09:54;;;;;;;21.23;15.43;;;14.10;91.00;;;;;;5032355;28;20036;-86
2021/09/14 05:12:20;;;;;;;18.58;14.95;;;14.10;91.10;;;;;;5015967;28;20029;-86
2021/09/14 05:14:45;;;;;;;19.63;14.52;;;14.00;91.10;;;;;;5015645;28;20052;-86
2021/09/14 05:17:18;;;;;;;19.38;14.85;;;14.00;91.20;;;;;;5016505;28;20496;-86
2021/09/14 05:19:45;;;;;;;21.58;16.70;;;14.10;91.20;;;;;;5018835;28;20037;-86
2021/09/14 05:22:12;;;;;;;21.92;15.68;;;14.10;91.20;;;;;;5015857;28;20060;-86
2021/09/14 05:24:38;;;;;;;22.08;16.33;;;14.00;91.20;;;;;;5020983;28;20041;-86
2021/09/14 05:27:04;;;;;;;19.33;14.55;;;14.10;91.20;;;;;;5053453;28;20031;-86
2021/09/14 05:29:30;;;;;;;22.08;14.68;;;14.10;91.20;;;;;;5034909;28;20063;-86
2021/09/14 05:31:57;;;;;;;21.08;14.90;;;14.10;91.30;;;;;;5052985;28;20470;-86
2021/09/14 05:34:24;;;;;;;24.95;18.85;;;14.10;91.50;;;;;;5031682;28;20052;-86
2021/09/14 05:36:49;;;;;;;24.52;18.17;;;14.10;91.30;;;;;;5015451;28;20028;-86
2021/09/14 05:39:15;;;;;;;28.35;18.83;;;14.20;91.60;;;;;;5031831;28;20022;-86
2021/09/14 05:41:41;;;;;;;17.90;14.65;;;14.20;91.30;;;;;;5031910;28;20528;-86
2021/09/14 05:44:07;;;;;;;26.60;17.70;;;14.20;91.40;;;;;;5043115;28;20040;-86
2021/09/14 05:46:32;;;;;;;26.15;18.00;;;14.20;91.40;;;;;;5054529;28;20470;-86
2021/09/14 05:48:58;;;;;;;22.77;17.70;;;14.30;91.30;;;;;;5057026;28;20025;-87
2021/09/14 05:51:24;;;;;;;21.50;14.75;;;14.30;91.30;;;;;;5039115;28;20036;-86
2021/09/14 05:53:51;;;;;;;21.13;14.35;;;14.40;91.30;;;;;;5022852;28;20482;-86
2021/09/14 05:56:16;;;;;;;19.90;14.93;;;14.40;91.30;;;;;;5057154;28;20453;-86
2021/09/14 05:58:42;;;;;;;22.40;15.43;;;14.40;91.20;;;;;;5039352;28;20053;-86
2021/09/14 06:01:09;;;;;;;20.10;16.27;;;14.50;91.20;;;;;;5039139;28;20116;-86
2021/09/14 06:03:34;;;;;;;20.92;16.27;;;14.50;91.20;;;;;;5055901;28;20038;-86
2021/09/14 06:06:01;;;;;;;21.70;17.67;;;14.50;91.30;;;;;;5039155;28;20065;-86
2021/09/14 06:08:27;;;;;;;22.88;15.52;;;14.50;91.60;;;;;;5055994;28;20492;-86
2021/09/14 06:10:52;;;;;;;22.83;17.50;;;14.50;91.30;;;;;;5038786;28;20428;-86
2021/09/14 06:13:18;;;;;;;21.15;15.10;;;14.60;91.40;;;;;;5055532;28;20025;-86
2021/09/14 06:15:44;;;;;;;21.35;18.30;;;14.70;91.40;;;;;;5038877;28;20106;-86
2021/09/14 06:18:10;;;;;;;23.60;17.65;;;14.70;91.30;;;;;;5056613;28;20048;-86
2021/09/14 06:20:35;;;;;;;24.00;17.95;;;14.70;91.30;;;;;;5038895;28;20470;-86
2021/09/14 06:23:02;;;;;;;21.83;16.67;;;14.80;91.30;;;;;;5038779;28;20035;-85
2021/09/14 06:25:27;;;;;;;21.83;16.90;;;14.80;91.30;;;;;;5056593;28;20096;-86
2021/09/14 06:27:53;;;;;;;21.30;16.13;;;14.90;91.30;;;;;;5038576;28;20125;-86
2021/09/14 06:30:19;;;;;;;22.83;16.42;;;14.90;91.30;;;;;;5056461;28;20502;-86
2021/09/14 06:32:44;;;;;;;26.13;17.00;;;15.00;91.30;;;;;;5038662;28;20036;-86
2021/09/14 06:35:10;;;;;;;19.17;16.83;;;15.10;91.30;;;;;;5038271;28;20025;-86
2021/09/14 06:37:36;;;;;;;22.10;17.42;;;15.10;91.30;;;;;;5056458;28;20035;-86
2021/09/14 06:40:03;;;;;;;24.58;16.35;;;15.20;91.20;;;;;;5034883;28;20060;-86
2021/09/14 06:42:29;;;;;;;23.48;16.83;;;15.30;91.20;;;;;;5035095;28;20028;-86
2021/09/14 06:44:56;;;;;;;22.40;17.42;;;15.30;91.10;;;;;;5036304;28;20029;-86
2021/09/14 06:47:21;;;;;;;27.55;16.98;;;15.40;91.10;;;;;;5050933;28;20033;-86
2021/09/14 06:49:47;;;;;;;21.60;17.45;;;15.40;91.00;;;;;;5021552;28;20132;-86
2021/09/14 06:52:13;;;;;;;22.08;17.55;;;15.30;91.10;;;;;;5034785;28;20029;-85
2021/09/14 06:54:38;;;;;;;25.80;18.30;;;15.40;91.10;;;;;;5019497;28;20478;-86
2021/09/14 06:57:04;;;;;;;23.95;17.90;;;15.40;91.10;;;;;;5037894;28;20059;-86
2021/09/14 06:59:30;;;;;;;24.85;17.83;;;15.50;91.20;;;;;;5034686;28;20087;-86
2021/09/14 07:01:55;;;;;;;26.35;17.92;;;15.50;91.20;;;;;;5017754;28;20398;-86
2021/09/14 07:04:21;;;;;;;25.65;18.27;;;15.40;91.20;;;;;;5035359;28;20038;-85
2021/09/14 07:06:50;;;;;;;21.98;17.77;;;15.40;91.30;;;;;;5034623;28;20029;-86
2021/09/14 07:09:16;;;;;;;23.10;17.52;;;15.50;91.30;;;;;;5020266;28;20083;-85
2021/09/14 07:11:41;;;;;;;20.35;17.33;;;15.50;91.30;;;;;;5039439;28;20045;-86
2021/09/14 07:14:07;;;;;;;27.17;18.83;;;15.70;91.30;;;;;;5019076;28;20043;-86
2021/09/14 07:16:32;;;;;;;23.48;16.83;;;15.70;91.20;;;;;;5030277;28;20085;-85
2021/09/14 07:18:58;;;;;;;23.08;17.88;;;15.80;91.20;;;;;;5016560;28;20025;-86
2021/09/14 07:21:24;;;;;;;18.95;16.05;;;16.00;91.10;;;;;;5038038;28;20039;-86
2021/09/14 07:23:49;;;;;;;23.10;16.63;;;16.00;91.00;;;;;;5032649;28;20071;-86
2021/09/14 07:26:15;;;;;;;23.48;16.45;;;16.10;90.90;;;;;;5015970;28;20045;-86
2021/09/14 07:28:41;;;;;;;19.27;15.88;;;16.20;90.80;;;;;;5035086;28;20040;-86
2021/09/14 07:31:08;;;;;;;23.02;16.02;;;16.40;90.70;;;;;;5035235;28;20026;-86
2021/09/14 07:33:33;;;;;;;18.23;14.70;;;16.50;90.60;;;;;;5034301;28;20026;-86
2021/09/14 07:35:59;;;;;;;16.35;13.65;;;16.80;90.40;;;;;;5033600;28;20114;-86
2021/09/14 07:38:25;;;;;;;19.40;14.80;;;17.00;90.10;;;;;;5016740;28;20033;-86
2021/09/14 07:40:50;;;;;;;22.75;14.38;;;17.20;89.30;;;;;;5052412;28;20118;-86
2021/09/14 07:43:16;;;;;;;14.82;13.13;;;17.40;88.70;;;;;;5037266;28;20117;-86
2021/09/14 07:45:42;;;;;;;18.38;12.75;;;17.50;88.20;;;;;;5053649;28;20482;-86
2021/09/14 07:48:08;;;;;;;17.65;13.68;;;17.70;88.30;;;;;;5053762;28;20044;-86
2021/09/14 07:50:34;;;;;;;16.95;12.52;;;17.90;86.70;;;;;;5020415;28;20044;-86
2021/09/14 07:52:59;;;;;;;19.02;12.95;;;18.00;86.50;;;;;;5053512;28;20053;-86
2021/09/14 07:55:25;;;;;;;17.30;13.13;;;18.10;86.00;;;;;;5052970;28;20059;-86
2021/09/14 07:57:51;;;;;;;18.95;12.65;;;18.30;85.70;;;;;;5037032;28;20029;-86
2021/09/14 08:00:17;;;;;;;16.92;12.07;;;18.40;85.40;;;;;;5054583;28;20026;-86
2021/09/14 08:02:52;;;;;;;17.95;12.57;;;18.50;84.90;;;;;;5036725;28;20140;-86
2021/09/14 08:05:18;;;;;;;17.45;11.82;;;18.60;84.00;;;;;;5054698;28;20508;-86
2021/09/14 08:07:43;;;;;;;14.02;10.95;;;18.70;84.00;;;;;;5053067;28;20040;-86
2021/09/14 08:10:09;;;;;;;11.82;10.32;;;19.00;83.70;;;;;;5052808;28;20097;-84
2021/09/14 08:12:35;;;;;;;13.93;10.27;;;19.10;83.10;;;;;;5036660;28;20046;-85
2021/09/14 08:15:00;;;;;;;15.60;9.82;;;19.30;82.10;;;;;;5053252;28;20029;-86
2021/09/14 08:17:26;;;;;;;13.88;10.75;;;19.40;81.80;;;;;;5052460;28;20028;-85
2021/09/14 08:19:52;;;;;;;15.02;10.38;;;19.50;81.60;;;;;;5036317;28;20383;-86
2021/09/14 08:22:19;;;;;;;15.13;10.20;;;19.60;81.50;;;;;;5036422;28;20021;-85
2021/09/14 08:24:45;;;;;;;12.45;9.90;;;19.70;81.10;;;;;;5019582;28;20033;-86
2021/09/14 08:27:10;;;;;;;12.32;10.57;;;19.70;80.60;;;;;;5051456;28;20033;-85
2021/09/14 08:29:36;;;;;;;13.88;9.43;;;19.80;80.60;;;;;;5034617;28;20087;-85
2021/09/14 08:32:02;;;;;;;11.10;9.07;;;20.00;80.40;;;;;;5052535;28;20029;-85
2021/09/14 08:34:27;;;;;;;12.90;9.60;;;20.10;80.00;;;;;;5034064;28;20044;-85
2021/09/14 08:36:53;;;;;;;10.57;8.82;;;20.20;79.70;;;;;;5053575;28;20029;-85
2021/09/14 08:39:19;;;;;;;12.88;8.25;;;20.20;79.30;;;;;;5035929;28;20036;-86
2021/09/14 08:41:44;;;;;;;12.52;8.32;;;20.30;79.30;;;;;;5052373;28;20402;-85
2021/09/14 08:44:10;;;;;;;8.98;7.85;;;20.30;79.20;;;;;;5035715;28;20537;-85
2021/09/14 08:46:36;;;;;;;9.18;7.07;;;20.30;79.20;;;;;;5053845;28;20477;-86
2021/09/14 08:49:02;;;;;;;10.02;7.53;;;20.50;79.20;;;;;;5035905;28;20102;-86
2021/09/14 08:51:28;;;;;;;9.85;7.75;;;20.60;78.70;;;;;;5054017;28;20036;-86
2021/09/14 08:53:54;;;;;;;10.73;7.78;;;20.70;78.30;;;;;;5053230;28;20748;-86
2021/09/14 08:56:20;;;;;;;13.98;7.68;;;20.60;78.40;;;;;;5034810;28;20059;-85
2021/09/14 08:59:03;;;;;;;10.05;7.93;;;20.60;78.40;;;;;;5053467;28;20029;-84
2021/09/14 09:01:29;;;;;;;9.02;7.47;;;20.70;77.80;;;;;;5035454;28;20502;-84
2021/09/14 09:04:06;;;;;;;14.32;7.45;;;20.80;77.90;;;;;;5053492;28;20135;-84
2021/09/14 09:06:32;;;;;;;11.25;7.18;;;20.80;77.80;;;;;;5035738;28;20432;-84
2021/09/14 09:09:10;;;;;;;7.90;7.10;;;20.70;77.60;;;;;;5053504;28;20481;-84
2021/09/14 09:11:35;;;;;;;10.27;6.50;;;20.80;77.70;;;;;;5052989;28;20029;-84
2021/09/14 09:14:04;;;;;;;8.60;6.45;;;21.00;77.70;;;;;;5052197;28;20048;-84
2021/09/14 09:16:30;;;;;;;12.73;7.45;;;21.10;77.30;;;;;;5019567;28;20572;-83
2021/09/14 09:19:03;;;;;;;10.88;6.80;;;21.20;76.60;;;;;;5035538;28;20031;-84
2021/09/14 09:21:36;;;;;;;9.55;6.38;;;21.20;76.50;;;;;;5035404;28;20079;-84
2021/09/14 09:24:06;;;;;;;9.88;6.30;;;21.10;76.50;;;;;;5035412;28;20029;-84
2021/09/14 09:26:37;;;;;;;9.48;6.13;;;21.10;77.20;;;;;;5035521;28;20021;-84
2021/09/14 09:29:05;;;;;;;7.20;6.25;;;21.10;76.90;;;;;;5035169;28;20025;-83
2021/09/14 09:31:33;;;;;;;9.57;6.95;;;21.10;77.30;;;;;;5035357;28;20378;-84
2021/09/14 09:34:07;;;;;;;8.02;6.95;;;21.10;77.50;;;;;;5051794;28;20090;-84
2021/09/14 09:36:36;;;;;;;9.05;7.03;;;21.20;77.60;;;;;;5053143;28;20478;-84
2021/09/14 09:39:06;;;;;;;11.30;6.40;;;21.30;77.30;;;;;;5035245;28;20394;-84
2021/09/14 09:41:34;;;;;;;10.38;6.53;;;21.40;76.60;;;;;;5052943;28;20029;-84
2021/09/14 09:44:11;;;;;;;9.20;6.95;;;21.60;76.10;;;;;;5035268;28;20029;-83
2021/09/14 09:46:37;;;;;;;8.73;6.68;;;21.60;75.60;;;;;;5035158;28;20429;-84
2021/09/14 09:49:06;;;;;;;7.90;5.70;;;21.80;75.30;;;;;;5052635;28;20025;-84
2021/09/14 09:51:32;;;;;;;;;;;22.00;75.00;;;;;;5034965;28;20112;-84
2021/09/14 09:53:58;;;;;;;9.30;5.68;;;22.10;75.00;;;;;;5034796;28;19913;-85
2021/09/14 09:56:24;;;;;;;9.20;6.28;;;22.20;74.60;;;;;;5052687;28;20031;-85
2021/09/14 09:58:51;;;;;;;8.15;6.50;;;22.40;73.80;;;;;;5052737;28;20022;-84
2021/09/14 10:01:21;;;;;;;9.02;6.40;;;22.60;73.20;;;;;;5034615;28;20036;-85
2021/09/14 10:04:04;;;;;;;7.20;5.43;;;22.70;72.50;;;;;;5052725;28;20502;-86
2021/09/14 10:06:33;;;;;;;8.30;5.60;;;22.80;72.70;;;;;;5034689;28;20033;-86
2021/09/14 10:08:59;;;;;;;8.30;5.70;;;22.90;72.40;;;;;;5051775;28;20052;-86
2021/09/14 10:11:27;;;;;;;7.00;5.30;;;23.10;71.60;;;;;;5034513;28;20367;-85
2021/09/14 10:14:07;;;;;;;6.95;5.53;;;23.20;71.50;;;;;;5052798;28;20025;-86
2021/09/14 10:16:38;;;;;;;8.40;5.38;;;23.40;70.80;;;;;;5034608;28;20033;-86
2021/09/14 10:19:16;;;;;;;5.82;5.22;;;23.50;70.70;;;;;;5034857;28;20115;-85
2021/09/14 10:22:02;;;;;;;9.25;5.85;;;23.70;70.00;;;;;;5031613;28;20014;-85
2021/09/14 10:24:29;;;;;;;12.32;5.60;;;23.80;69.50;;;;;;5036223;28;20123;-85
2021/09/14 10:27:08;;;;;;;7.28;5.15;;;23.80;69.50;;;;;;5034556;28;20029;-85
2021/09/14 10:29:37;;;;;;;7.85;4.85;;;23.90;69.30;;;;;;5051344;28;20040;-85
2021/09/14 10:32:04;;;;;;;;;;;23.90;69.20;;;;;;5054324;28;20474;-86
2021/09/14 10:34:31;;;;;;;9.32;5.03;;;24.00;69.60;;;;;;5038342;28;20319;-85
2021/09/14 10:37:07;;;;;;;11.43;5.18;;;24.00;68.90;;;;;;5056242;28;20096;-85
2021/09/14 10:39:35;;;;;;;5.47;4.82;;;24.00;68.70;;;;;;5056155;28;20017;-85
2021/09/14 10:42:21;;;;;;;5.85;4.57;;;24.00;69.00;;;;;;5062451;28;20432;-85
2021/09/14 10:44:49;;;;;;;8.30;4.80;;;24.00;69.00;;;;;;5055015;28;20056;-86
2021/09/14 10:47:23;;;;;;;8.37;5.30;;;24.00;68.90;;;;;;5054636;28;20115;-85
2021/09/14 10:49:54;;;;;;;5.93;4.10;;;24.00;68.30;;;;;;5051039;28;20041;-84
2021/09/14 10:52:40;;;;;;;7.03;5.03;;;24.00;69.30;;;;;;5036061;28;20091;-85
2021/09/14 10:55:10;;;;;;;6.30;4.70;;;24.10;68.40;;;;;;5035744;28;20029;-84
2021/09/14 10:57:47;;;;;;;8.10;4.68;;;24.10;68.00;;;;;;5036281;28;20028;-84
2021/09/14 11:00:15;;;;;;;10.07;5.05;;;24.00;68.40;;;;;;5018246;28;20030;-85
2021/09/14 11:02:41;;;;;;;6.28;4.25;;;24.00;68.50;;;;;;5035742;28;20041;-84
2021/09/14 11:05:09;;;;;;;7.47;4.30;;;24.00;68.90;;;;;;5017920;28;20034;-84
2021/09/14 11:07:35;;;;;;;9.30;4.70;;;24.00;68.80;;;;;;5051262;28;20444;-87
2021/09/14 11:10:10;;;;;;;8.77;3.88;;;24.00;68.60;;;;;;5055660;28;20029;-87
2021/09/14 11:12:36;;;;;;;6.20;4.03;;;24.10;69.20;;;;;;5055606;28;20044;-86
2021/09/14 11:15:02;;;;;;;5.38;4.20;;;24.20;68.90;;;;;;5037775;28;20057;-82
2021/09/14 11:17:30;;;;;;;6.97;3.97;;;24.30;68.60;;;;;;5054414;28;20025;-86
2021/09/14 11:20:07;;;;;;;4.97;3.90;;;24.30;68.40;;;;;;5035614;28;20387;-86
2021/09/14 11:22:36;;;;;;;9.13;4.45;;;24.40;68.40;;;;;;5017670;28;20034;-85
2021/09/14 11:25:02;;;;;;;;;;;24.40;68.00;;;;;;5018084;28;20028;-86
2021/09/14 11:27:28;;;;;;;7.75;4.30;;;24.50;67.90;;;;;;5042921;28;20106;-85
2021/09/14 11:29:56;;;;;;;5.22;4.15;;;24.60;67.30;;;;;;5053695;28;20119;-83
2021/09/14 11:32:22;;;;;;;6.22;3.80;;;24.60;67.20;;;;;;5037562;28;20450;-84
2021/09/14 11:34:49;;;;;;;5.85;4.05;;;24.50;67.50;;;;;;5037226;28;20123;-83
2021/09/14 11:37:25;;;;;;;8.93;4.38;;;24.40;67.70;;;;;;5054606;28;20039;-83
2021/09/14 11:39:51;;;;;;;12.10;4.03;;;24.40;68.00;;;;;;5037269;28;20477;-83
2021/09/14 11:42:16;;;;;;;7.53;3.78;;;24.50;68.30;;;;;;5053452;28;20155;-83
2021/09/14 11:44:42;;;;;;;8.30;4.25;;;24.60;68.30;;;;;;5036283;28;20094;-83
2021/09/14 11:47:09;;;;;;;6.90;4.00;;;24.60;68.10;;;;;;5037084;28;20456;-83
2021/09/14 11:49:35;;;;;;;5.55;3.83;;;24.70;67.90;;;;;;5055053;28;20037;-83
2021/09/14 11:52:04;;;;;;;4.40;4.00;;;24.70;67.60;;;;;;5054927;28;20029;-83
2021/09/14 11:54:37;;;;;;;10.85;4.22;;;24.70;67.30;;;;;;5036992;28;20695;-83
2021/09/14 11:57:03;;;;;;;8.43;3.72;;;24.70;66.90;;;;;;5054306;28;20072;-83
2021/09/14 11:59:36;;;;;;;10.68;3.50;;;24.60;66.90;;;;;;5055087;28;20488;-83
2021/09/14 12:02:03;;;;;;;6.50;3.95;;;24.60;67.70;;;;;;5036830;28;20031;-83
2021/09/14 12:04:29;;;;;;;11.32;4.63;;;24.60;67.50;;;;;;5036787;28;20062;-83
2021/09/14 12:07:00;;;;;;;7.60;3.50;;;24.60;67.60;;;;;;5036984;28;20048;-83
2021/09/14 12:09:28;;;;;;;6.00;3.63;;;24.60;68.30;;;;;;5054578;28;20035;-83
2021/09/14 12:12:09;;;;;;;6.15;3.72;;;24.50;68.90;;;;;;5053274;28;20039;-83
2021/09/14 12:14:35;;;;;;;5.18;3.90;;;24.50;69.10;;;;;;5054319;28;20029;-83
2021/09/14 12:17:03;;;;;;;9.20;4.30;;;24.50;69.10;;;;;;5036652;28;20029;-83
2021/09/14 12:19:34;;;;;;;4.63;3.45;;;24.50;68.70;;;;;;5032667;28;20104;-83
2021/09/14 12:21:59;;;;;;;7.70;3.65;;;24.50;68.80;;;;;;5033389;28;20125;-83
2021/09/14 12:24:25;;;;;;;6.63;4.10;;;24.60;68.80;;;;;;5000281;28;20116;-83
2021/09/14 12:26:51;;;;;;;6.72;4.15;;;24.70;68.70;;;;;;5033259;28;20037;-83
2021/09/14 12:29:19;;;;;;;6.25;3.60;;;24.70;68.60;;;;;;5033001;28;20033;-83
2021/09/14 12:31:46;;;;;;;6.18;3.67;;;24.80;68.90;;;;;;5037526;28;20035;-85
2021/09/14 12:34:14;;;;;;;7.10;3.78;;;24.80;68.60;;;;;;5052388;28;20154;-85
2021/09/14 12:36:41;;;;;;;6.70;3.78;;;24.80;68.00;;;;;;5035942;28;20397;-84
2021/09/14 12:39:08;;;;;;;8.90;3.17;;;24.80;68.20;;;;;;5036167;28;20032;-85
2021/09/14 12:47:23;;;;;;;4.63;2.92;;;24.90;68.80;;;;;;5045442;28;20384;-84
2021/09/14 12:49:48;;;;;;;8.90;3.65;;;24.90;68.30;;;;;;5034292;28;20029;-84
2021/09/14 12:52:14;;;;;;;9.93;3.72;;;25.00;68.00;;;;;;5051765;28;20088;-83
2021/09/14 12:54:39;;;;;;;5.07;3.63;;;24.90;67.30;;;;;;5018405;28;20029;-84
2021/09/14 12:57:05;;;;;;;8.95;3.90;;;24.90;67.60;;;;;;5035111;28;20029;-84
2021/09/14 12:59:31;;;;;;;7.57;3.63;;;24.90;68.10;;;;;;5018308;28;20056;-84
2021/09/14 13:01:56;;;;;;;5.80;3.92;;;24.90;68.10;;;;;;5034200;28;20085;-83
2021/09/14 13:04:22;;;;;;;9.13;3.83;;;24.80;68.20;;;;;;5033897;28;20043;-84
2021/09/14 13:06:47;;;;;;;5.65;3.70;;;24.80;68.70;;;;;;5051914;28;20112;-84
2021/09/14 13:09:13;;;;;;;7.32;3.80;;;24.80;69.20;;;;;;5051718;28;20508;-84
2021/09/14 13:11:39;;;;;;;6.70;3.72;;;24.70;69.20;;;;;;5030324;28;20446;-83
2021/09/14 13:16:48;;;;;;;6.80;3.72;;;24.70;69.30;;;;;;5033773;28;20036;-83
2021/09/14 13:19:14;;;;;;;10.95;3.72;;;24.60;70.30;;;;;;5041730;28;20389;-83
2021/09/14 13:21:39;;;;;;;6.13;3.97;;;24.60;70.50;;;;;;5035390;28;20033;-83
2021/09/14 13:24:05;;;;;;;9.85;3.95;;;24.60;70.20;;;;;;5035558;28;20029;-84
2021/09/14 13:26:31;;;;;;;7.15;2.95;;;24.70;70.20;;;;;;5035039;28;20554;-83
2021/09/14 13:28:56;;;;;;;8.48;3.70;;;24.60;69.40;;;;;;5034315;28;20064;-82
2021/09/14 13:31:22;;;;;;;7.18;3.25;;;24.70;69.00;;;;;;5052081;28;20067;-82
2021/09/14 13:33:47;;;;;;;11.02;3.78;;;24.70;68.80;;;;;;5034978;28;20043;-83
2021/09/14 13:36:16;;;;;;;8.23;3.90;;;24.60;69.50;;;;;;5034101;28;20029;-82
2021/09/14 13:38:43;;;;;;;6.53;3.95;;;24.70;69.40;;;;;;5035868;28;20025;-82
2021/09/14 13:41:14;;;;;;;6.95;3.92;;;24.60;69.20;;;;;;5053099;28;20025;-82